Time;durP1;ratioP1;P1;durP2;ratioP2;P2;SDS_P1;SDS_P2;PMS_P1;PMS_P2;Temp;Humidity;BMP_temperature;BMP_pressure;BME280_temperature;BME280_humidity;BME280_pressure;Samples;Min_cycle;Max_cycle;Signal;HPM_P1;HPM_P2
2023/10/22 00:00:11;;;;;;;1.50;0.50;;;13.10;99.90;;;;;;5138007;27;20422;-60
2023/10/22 00:02:39;;;;;;;0.93;0.50;;;13.10;99.90;;;;;;5138186;27;20703;-62
2023/10/22 00:05:07;;;;;;;0.90;0.50;;;13.10;99.90;;;;;;5137845;27;20856;-62
2023/10/22 00:07:35;;;;;;;0.70;0.50;;;13.10;99.90;;;;;;5137643;27;20415;-62
2023/10/22 00:10:02;;;;;;;0.90;0.40;;;13.00;99.90;;;;;;5137815;27;20883;-62
2023/10/22 00:12:51;;;;;;;0.90;0.40;;;13.00;99.90;;;;;;5138622;27;20417;-62
2023/10/22 00:15:21;;;;;;;0.90;0.40;;;13.00;99.90;;;;;;5124409;27;20458;-62
2023/10/22 00:17:48;;;;;;;0.60;0.40;;;12.90;99.90;;;;;;5137613;27;20429;-62
2023/10/22 00:20:15;;;;;;;0.68;0.40;;;12.80;99.90;;;;;;5136946;27;20429;-61
2023/10/22 00:22:42;;;;;;;0.70;0.50;;;12.70;99.90;;;;;;5137306;27;20449;-62
2023/10/22 00:25:10;;;;;;;1.20;0.50;;;12.70;99.90;;;;;;5137010;27;20410;-62
2023/10/22 00:27:37;;;;;;;0.90;0.50;;;12.60;99.90;;;;;;5136752;27;20422;-62
2023/10/22 00:30:05;;;;;;;0.60;0.40;;;12.50;99.90;;;;;;5137058;27;20452;-62
2023/10/22 00:32:33;;;;;;;0.80;0.40;;;12.50;99.90;;;;;;5137503;27;20897;-62
2023/10/22 00:35:00;;;;;;;1.10;0.40;;;12.50;99.90;;;;;;5136622;27;20486;-63
2023/10/22 00:37:27;;;;;;;0.60;0.40;;;12.40;99.90;;;;;;5136675;27;20411;-61
2023/10/22 00:39:54;;;;;;;0.60;0.50;;;12.40;99.90;;;;;;5135990;27;20833;-62
2023/10/22 00:42:22;;;;;;;0.80;0.50;;;12.40;99.90;;;;;;5136411;27;20493;-63
2023/10/22 00:44:49;;;;;;;0.70;0.40;;;12.40;99.90;;;;;;5136591;27;20445;-63
2023/10/22 00:47:16;;;;;;;0.60;0.38;;;12.40;99.90;;;;;;5135044;27;20583;-61
2023/10/22 00:49:45;;;;;;;1.30;0.40;;;12.40;99.90;;;;;;5134413;27;20885;-62
2023/10/22 00:52:13;;;;;;;1.00;0.38;;;12.30;99.90;;;;;;5134679;27;20418;-61
2023/10/22 00:54:40;;;;;;;1.10;0.40;;;12.20;99.90;;;;;;5136428;27;20419;-64
2023/10/22 00:57:09;;;;;;;0.50;0.30;;;12.20;99.90;;;;;;5134785;27;20622;-62
2023/10/22 00:59:36;;;;;;;0.60;0.40;;;12.20;99.90;;;;;;5134415;27;20449;-61
2023/10/22 01:02:03;;;;;;;0.60;0.30;;;12.30;99.90;;;;;;5134649;27;20426;-62
2023/10/22 01:04:32;;;;;;;1.20;0.40;;;12.30;99.90;;;;;;5134584;27;20426;-62
2023/10/22 01:07:03;;;;;;;0.60;0.40;;;12.30;99.90;;;;;;5135296;27;20410;-62
2023/10/22 01:09:30;;;;;;;0.88;0.40;;;12.40;99.90;;;;;;5134896;27;20521;-62
2023/10/22 01:11:58;;;;;;;0.60;0.40;;;12.40;99.90;;;;;;5135893;27;20414;-61
2023/10/22 01:14:25;;;;;;;0.75;0.38;;;12.40;99.90;;;;;;5135598;27;20487;-62
2023/10/22 01:16:52;;;;;;;0.50;0.30;;;12.30;99.90;;;;;;5134826;27;20418;-63
2023/10/22 01:19:19;;;;;;;0.60;0.30;;;12.30;99.90;;;;;;5135213;27;21111;-62
2023/10/22 01:21:46;;;;;;;0.60;0.30;;;12.20;99.90;;;;;;5134225;27;20781;-62
2023/10/22 01:24:14;;;;;;;0.50;0.30;;;12.20;99.90;;;;;;5135337;27;20502;-62
2023/10/22 01:26:42;;;;;;;0.57;0.30;;;12.20;99.90;;;;;;5134065;27;20787;-61
2023/10/22 01:29:09;;;;;;;0.68;0.30;;;12.20;99.90;;;;;;5134741;27;20418;-64
2023/10/22 01:31:36;;;;;;;0.52;0.30;;;12.10;99.90;;;;;;5136287;27;20411;-62
2023/10/22 01:34:03;;;;;;;0.60;0.30;;;12.10;99.90;;;;;;5135675;27;20533;-62
2023/10/22 01:36:30;;;;;;;0.50;0.30;;;12.10;99.90;;;;;;5135265;27;20414;-63
2023/10/22 01:38:57;;;;;;;0.60;0.30;;;12.00;99.90;;;;;;5134282;27;20458;-62
2023/10/22 01:41:25;;;;;;;0.50;0.30;;;12.00;99.90;;;;;;5133822;27;20431;-62
2023/10/22 01:43:53;;;;;;;0.60;0.30;;;12.00;99.90;;;;;;5135137;27;20436;-63
2023/10/22 01:46:20;;;;;;;0.50;0.30;;;12.10;99.90;;;;;;5135668;27;20885;-62
2023/10/22 01:48:47;;;;;;;0.50;0.30;;;12.00;99.90;;;;;;5135651;27;20491;-62
2023/10/22 01:51:14;;;;;;;0.70;0.30;;;12.00;99.90;;;;;;5136235;27;20410;-63
2023/10/22 01:53:42;;;;;;;0.50;0.30;;;12.00;99.90;;;;;;5135709;27;20468;-62
2023/10/22 01:56:09;;;;;;;0.70;0.30;;;12.10;99.90;;;;;;5135769;27;20528;-62
2023/10/22 01:58:37;;;;;;;0.60;0.30;;;12.10;99.90;;;;;;5135453;27;20434;-62
2023/10/22 02:01:04;;;;;;;0.55;0.30;;;12.00;99.90;;;;;;5135803;27;20489;-62
2023/10/22 02:03:35;;;;;;;0.50;0.30;;;12.00;99.90;;;;;;5135327;27;20426;-62
2023/10/22 02:06:02;;;;;;;0.50;0.30;;;12.00;99.90;;;;;;5135972;27;20426;-62
2023/10/22 02:08:29;;;;;;;0.60;0.30;;;11.90;99.90;;;;;;5135948;27;20422;-62
2023/10/22 02:10:55;;;;;;;0.50;0.28;;;12.00;99.90;;;;;;5135991;27;20418;-62
2023/10/22 02:13:23;;;;;;;0.60;0.30;;;12.00;99.90;;;;;;5135417;27;20468;-62
2023/10/22 02:15:51;;;;;;;0.50;0.30;;;11.90;99.90;;;;;;5135805;27;20421;-62
2023/10/22 02:18:18;;;;;;;1.25;0.30;;;11.90;99.90;;;;;;5134606;27;20418;-62
2023/10/22 02:20:55;;;;;;;0.60;0.30;;;11.80;99.90;;;;;;5135745;28;20895;-62
2023/10/22 02:23:22;;;;;;;0.50;0.30;;;11.90;99.90;;;;;;5134480;27;20430;-62
2023/10/22 02:25:50;;;;;;;0.70;0.38;;;11.90;99.90;;;;;;5135457;27;20425;-62
2023/10/22 02:28:17;;;;;;;0.80;0.30;;;11.80;99.90;;;;;;5134802;27;20914;-62
2023/10/22 02:30:44;;;;;;;0.50;0.30;;;11.80;99.90;;;;;;5135629;27;20494;-63
2023/10/22 02:33:13;;;;;;;0.50;0.30;;;11.80;99.90;;;;;;5134181;27;20902;-62
2023/10/22 02:35:41;;;;;;;0.45;0.30;;;11.80;99.90;;;;;;5134329;27;20429;-62
2023/10/22 02:38:08;;;;;;;1.10;0.30;;;11.70;99.90;;;;;;5134012;28;20786;-62
2023/10/22 02:40:36;;;;;;;0.60;0.30;;;11.70;99.90;;;;;;5134134;27;20441;-62
2023/10/22 02:43:03;;;;;;;0.80;0.30;;;11.90;99.90;;;;;;5134678;27;20413;-63
2023/10/22 02:45:31;;;;;;;1.10;0.30;;;12.00;99.90;;;;;;5134693;27;20898;-62
2023/10/22 02:47:59;;;;;;;1.10;0.30;;;12.00;99.90;;;;;;5135567;27;20775;-62
2023/10/22 02:50:28;;;;;;;1.30;0.30;;;12.00;99.90;;;;;;5135501;27;20423;-61
2023/10/22 02:52:55;;;;;;;0.50;0.30;;;11.90;99.90;;;;;;5135661;27;20475;-62
2023/10/22 02:55:22;;;;;;;1.30;0.30;;;11.80;99.90;;;;;;5135234;27;20419;-61
2023/10/22 02:57:50;;;;;;;0.60;0.30;;;11.70;99.90;;;;;;5135460;27;20509;-63
2023/10/22 03:00:19;;;;;;;0.50;0.30;;;11.80;99.90;;;;;;5138346;27;20423;-62
2023/10/22 03:02:46;;;;;;;0.40;0.30;;;11.80;99.90;;;;;;5138823;27;20433;-63
2023/10/22 03:05:13;;;;;;;0.70;0.30;;;11.70;99.90;;;;;;5139049;27;20483;-63
2023/10/22 03:07:42;;;;;;;0.40;0.20;;;11.70;99.90;;;;;;5138490;27;20483;-63
2023/10/22 03:10:10;;;;;;;0.63;0.40;;;11.70;99.90;;;;;;5137484;27;20510;-62
2023/10/22 03:12:37;;;;;;;0.90;0.30;;;11.70;99.90;;;;;;5138735;27;20501;-62
2023/10/22 03:15:05;;;;;;;0.50;0.30;;;11.70;99.90;;;;;;5138565;27;20467;-64
2023/10/22 03:17:32;;;;;;;0.40;0.30;;;11.70;99.90;;;;;;5138790;27;20422;-62
2023/10/22 03:20:00;;;;;;;0.52;0.30;;;11.80;99.90;;;;;;5138580;27;20422;-62
2023/10/22 03:22:27;;;;;;;0.50;0.30;;;11.80;99.90;;;;;;5138588;27;20460;-61
2023/10/22 03:24:55;;;;;;;0.90;0.30;;;11.80;99.90;;;;;;5138740;27;20433;-61
2023/10/22 03:27:23;;;;;;;0.50;0.30;;;11.80;99.90;;;;;;5139218;27;20742;-61
2023/10/22 03:29:49;;;;;;;0.52;0.30;;;12.00;99.90;;;;;;5138720;27;20426;-61
2023/10/22 03:32:16;;;;;;;0.50;0.30;;;12.00;99.90;;;;;;5138931;27;20771;-62
2023/10/22 03:34:44;;;;;;;0.70;0.30;;;11.90;99.90;;;;;;5138696;27;20410;-62
2023/10/22 03:37:10;;;;;;;0.50;0.30;;;11.90;99.90;;;;;;5138705;27;20414;-62
2023/10/22 03:39:41;;;;;;;0.70;0.30;;;12.00;99.90;;;;;;5138993;27;20429;-62
2023/10/22 03:42:09;;;;;;;1.00;0.30;;;12.00;99.90;;;;;;5138574;27;20551;-62
2023/10/22 03:44:36;;;;;;;0.50;0.30;;;12.00;99.90;;;;;;5138656;27;20725;-62
2023/10/22 03:47:03;;;;;;;0.80;0.30;;;12.00;99.90;;;;;;5138642;27;20423;-63
2023/10/22 03:49:30;;;;;;;0.60;0.32;;;12.00;99.90;;;;;;5138171;27;20415;-62
2023/10/22 03:51:57;;;;;;;0.50;0.30;;;11.90;99.90;;;;;;5137763;27;20440;-61
2023/10/22 03:54:24;;;;;;;1.10;0.40;;;11.80;99.90;;;;;;5138386;27;20471;-63
2023/10/22 03:56:51;;;;;;;0.77;0.30;;;11.70;99.90;;;;;;5137332;27;20414;-63
2023/10/22 03:59:19;;;;;;;0.50;0.30;;;11.60;99.90;;;;;;5138265;27;20425;-64
2023/10/22 04:01:46;;;;;;;0.50;0.30;;;11.50;99.90;;;;;;5136912;27;20866;-62
2023/10/22 04:04:13;;;;;;;0.80;0.30;;;11.50;99.90;;;;;;5136866;27;20422;-61
2023/10/22 04:06:40;;;;;;;0.45;0.28;;;11.50;99.90;;;;;;5136869;27;20460;-62
2023/10/22 04:09:07;;;;;;;0.70;0.30;;;11.70;99.90;;;;;;5135745;27;20430;-63
2023/10/22 04:11:34;;;;;;;0.55;0.30;;;11.60;99.90;;;;;;5136950;27;20422;-62
2023/10/22 04:14:01;;;;;;;0.50;0.30;;;11.60;99.90;;;;;;5137172;27;20419;-62
2023/10/22 04:16:29;;;;;;;0.80;0.30;;;11.70;99.90;;;;;;5137911;27;20410;-61
2023/10/22 04:18:56;;;;;;;0.90;0.30;;;11.60;99.90;;;;;;5138057;27;20419;-62
2023/10/22 04:21:23;;;;;;;1.20;0.30;;;11.70;99.90;;;;;;5137786;27;20778;-63
2023/10/22 04:23:52;;;;;;;1.00;0.30;;;11.70;99.90;;;;;;5137382;27;20455;-62
2023/10/22 04:26:19;;;;;;;0.50;0.30;;;11.70;99.90;;;;;;5137398;27;20426;-63
2023/10/22 04:28:47;;;;;;;0.50;0.30;;;11.70;99.90;;;;;;5137438;27;20457;-62
2023/10/22 04:31:14;;;;;;;0.70;0.30;;;11.80;99.90;;;;;;5137649;27;20415;-61
2023/10/22 04:33:43;;;;;;;0.50;0.30;;;11.80;99.90;;;;;;5137265;27;20422;-62
2023/10/22 04:36:16;;;;;;;0.65;0.30;;;11.70;99.90;;;;;;5137329;27;20775;-63
2023/10/22 04:38:43;;;;;;;0.60;0.30;;;11.70;99.90;;;;;;5137328;27;20695;-62
2023/10/22 04:41:11;;;;;;;0.93;0.40;;;11.60;99.90;;;;;;5137243;27;20950;-62
2023/10/22 04:43:38;;;;;;;0.50;0.30;;;11.60;98.50;;;;;;5137074;27;20419;-62
2023/10/22 04:46:05;;;;;;;0.77;0.30;;;11.50;99.90;;;;;;5137299;27;20418;-62
2023/10/22 04:48:32;;;;;;;0.80;0.40;;;11.50;99.90;;;;;;5137563;27;20837;-62
2023/10/22 04:51:05;;;;;;;0.50;0.30;;;11.50;99.90;;;;;;5137642;27;20516;-62
2023/10/22 04:53:32;;;;;;;0.60;0.30;;;11.50;99.90;;;;;;5137325;27;20462;-63
2023/10/22 04:56:00;;;;;;;0.50;0.30;;;11.40;99.90;;;;;;5137093;27;20422;-62
2023/10/22 04:58:27;;;;;;;0.70;0.30;;;11.50;99.90;;;;;;5136627;27;20834;-61
2023/10/22 05:00:55;;;;;;;0.60;0.30;;;11.40;99.90;;;;;;5137271;27;20866;-63
2023/10/22 05:03:22;;;;;;;0.65;0.30;;;11.40;99.90;;;;;;5136481;27;20522;-62
2023/10/22 05:05:49;;;;;;;0.50;0.30;;;11.30;99.90;;;;;;5136635;27;20434;-62
2023/10/22 05:08:22;;;;;;;1.00;0.40;;;11.20;99.90;;;;;;5136280;27;20480;-61
2023/10/22 05:10:49;;;;;;;0.47;0.30;;;11.20;99.90;;;;;;5136364;27;20422;-63
2023/10/22 05:13:16;;;;;;;0.73;0.30;;;11.40;99.90;;;;;;5137183;27;20425;-62
2023/10/22 05:15:51;;;;;;;0.70;0.40;;;11.40;99.90;;;;;;5136731;27;20829;-63
2023/10/22 05:18:18;;;;;;;0.70;0.30;;;11.40;99.90;;;;;;5135803;27;20422;-62
2023/10/22 05:20:45;;;;;;;0.80;0.30;;;11.40;99.90;;;;;;5136334;27;20422;-62
2023/10/22 05:23:12;;;;;;;0.60;0.30;;;11.40;94.40;;;;;;5136315;27;20422;-61
2023/10/22 05:25:41;;;;;;;0.73;0.30;;;11.40;91.70;;;;;;5136388;27;20483;-63
2023/10/22 05:28:07;;;;;;;0.50;0.30;;;11.50;91.90;;;;;;5136269;27;20411;-62
2023/10/22 05:30:34;;;;;;;0.53;0.30;;;11.50;67.60;;;;;;5136489;27;20418;-63
2023/10/22 05:33:01;;;;;;;0.50;0.30;;;11.40;63.20;;;;;;5136183;27;20834;-63
2023/10/22 05:35:28;;;;;;;0.50;0.30;;;11.40;67.90;;;;;;5136500;27;20422;-62
2023/10/22 05:37:55;;;;;;;0.60;0.38;;;11.40;62.20;;;;;;5136122;27;20471;-63
2023/10/22 05:40:22;;;;;;;0.70;0.30;;;11.40;68.50;;;;;;5136205;27;20414;-62
2023/10/22 05:42:51;;;;;;;0.60;0.30;;;11.40;64.20;;;;;;5136206;27;20764;-62
2023/10/22 05:45:18;;;;;;;1.00;0.30;;;11.40;57.70;;;;;;5136314;27;20510;-63
2023/10/22 05:47:45;;;;;;;0.60;0.30;;;11.40;59.80;;;;;;5136010;27;20426;-62
2023/10/22 05:50:12;;;;;;;0.90;0.20;;;11.60;45.70;;;;;;5135943;27;20501;-61
2023/10/22 05:52:39;;;;;;;1.63;0.20;;;11.60;9.40;;;;;;5135571;27;20411;-63
2023/10/22 05:55:07;;;;;;;0.40;0.20;;;11.60;1.00;;;;;;5136317;27;20410;-63
2023/10/22 05:57:34;;;;;;;0.30;0.15;;;11.60;1.00;;;;;;5134219;27;20418;-63
2023/10/22 06:00:03;;;;;;;0.40;0.20;;;11.60;1.00;;;;;;5134716;27;20419;-63
2023/10/22 06:02:30;;;;;;;0.50;0.20;;;11.80;1.00;;;;;;5135382;27;20465;-63
2023/10/22 06:04:57;;;;;;;0.70;0.20;;;11.80;1.00;;;;;;5132937;27;20482;-64
2023/10/22 06:07:24;;;;;;;0.40;0.20;;;11.80;1.00;;;;;;5134437;27;20418;-63
2023/10/22 06:09:51;;;;;;;0.60;0.20;;;11.80;1.00;;;;;;5135360;27;20414;-64
2023/10/22 06:12:18;;;;;;;0.40;0.20;;;11.80;1.00;;;;;;5134281;28;20475;-62
2023/10/22 06:14:45;;;;;;;0.60;0.20;;;12.00;1.00;;;;;;5134349;27;20414;-61
2023/10/22 06:17:14;;;;;;;1.20;0.20;;;12.00;1.00;;;;;;5134074;27;20858;-61
2023/10/22 06:19:41;;;;;;;0.50;0.20;;;12.00;1.00;;;;;;5133993;28;20417;-61
2023/10/22 06:22:07;;;;;;;0.40;0.20;;;11.90;1.00;;;;;;5133795;27;20471;-61
2023/10/22 06:24:34;;;;;;;0.40;0.20;;;11.80;1.00;;;;;;5133017;27;20854;-61
2023/10/22 06:27:01;;;;;;;0.70;0.20;;;11.80;1.00;;;;;;5133739;27;20418;-62
2023/10/22 06:29:28;;;;;;;0.55;0.20;;;11.80;1.00;;;;;;5132788;27;20897;-62
2023/10/22 06:31:55;;;;;;;0.40;0.20;;;11.80;1.00;;;;;;5135716;27;20676;-62
2023/10/22 06:34:24;;;;;;;0.43;0.20;;;11.80;1.00;;;;;;5137123;27;20504;-61
2023/10/22 06:36:51;;;;;;;1.17;0.20;;;11.70;1.00;;;;;;5139572;27;20694;-62
2023/10/22 06:39:17;;;;;;;1.10;0.20;;;11.70;1.00;;;;;;5139414;27;20856;-62
2023/10/22 06:41:44;;;;;;;0.85;0.20;;;11.80;1.00;;;;;;5139878;27;20475;-62
2023/10/22 06:44:11;;;;;;;0.30;0.10;;;11.80;1.00;;;;;;5139283;27;20418;-62
2023/10/22 06:46:38;;;;;;;1.50;0.20;;;11.80;1.00;;;;;;5139259;27;20410;-62
2023/10/22 06:49:05;;;;;;;1.10;0.20;;;11.80;1.00;;;;;;5136280;27;20768;-62
2023/10/22 06:51:34;;;;;;;1.00;0.30;;;11.80;1.00;;;;;;5139310;27;20463;-61
2023/10/22 06:54:01;;;;;;;0.30;0.20;;;11.80;1.00;;;;;;5137591;27;20426;-62
2023/10/22 06:56:28;;;;;;;0.40;0.20;;;11.80;1.00;;;;;;5137852;27;20417;-61
2023/10/22 06:58:54;;;;;;;0.50;0.20;;;11.90;1.00;;;;;;5137873;27;20775;-62
2023/10/22 07:01:21;;;;;;;0.97;0.20;;;12.00;1.00;;;;;;5138698;27;20471;-60
2023/10/22 07:03:48;;;;;;;0.60;0.20;;;12.10;1.00;;;;;;5138648;27;20402;-61
2023/10/22 07:06:16;;;;;;;0.40;0.20;;;12.00;1.00;;;;;;5138860;27;20487;-61
2023/10/22 07:08:45;;;;;;;0.80;0.20;;;12.00;1.00;;;;;;5137763;27;20556;-61
2023/10/22 07:11:12;;;;;;;0.70;0.20;;;12.00;1.00;;;;;;5137849;27;20493;-61
2023/10/22 07:13:39;;;;;;;0.40;0.20;;;12.00;1.00;;;;;;5137335;27;20783;-60
2023/10/22 07:16:07;;;;;;;0.93;0.20;;;12.00;1.00;;;;;;5137144;27;20415;-61
2023/10/22 07:18:34;;;;;;;0.90;0.20;;;12.00;1.00;;;;;;5138193;27;20419;-62
2023/10/22 07:21:02;;;;;;;2.60;0.60;;;11.90;1.00;;;;;;5137445;27;20422;-62
2023/10/22 07:23:31;;;;;;;1.40;0.30;;;12.00;1.00;;;;;;5137456;27;20845;-61
2023/10/22 07:25:59;;;;;;;1.00;0.20;;;12.00;1.00;;;;;;5137601;27;20532;-62
2023/10/22 07:28:26;;;;;;;2.80;0.20;;;12.20;1.00;;;;;;5138082;27;20471;-61
2023/10/22 07:30:53;;;;;;;0.50;0.20;;;12.30;1.00;;;;;;5138290;27;20518;-62
2023/10/22 07:33:20;;;;;;;0.60;0.30;;;12.20;1.00;;;;;;5138630;27;20426;-61
2023/10/22 07:35:54;;;;;;;0.50;0.20;;;12.30;1.00;;;;;;5137908;27;20445;-61
2023/10/22 07:38:21;;;;;;;1.00;0.20;;;12.30;1.00;;;;;;5136634;27;20427;-61
2023/10/22 07:40:50;;;;;;;0.73;0.20;;;12.30;1.00;;;;;;5136576;27;20426;-61
2023/10/22 07:43:19;;;;;;;1.50;0.60;;;12.50;1.00;;;;;;5137290;27;20441;-61
2023/10/22 07:45:46;;;;;;;1.08;0.55;;;12.50;1.00;;;;;;5134615;27;20529;-61
2023/10/22 07:48:13;;;;;;;1.90;0.60;;;12.60;1.00;;;;;;5135334;27;20418;-61
2023/10/22 07:50:40;;;;;;;0.80;0.30;;;12.70;1.00;;;;;;5135644;27;20429;-62
2023/10/22 07:53:07;;;;;;;1.63;0.40;;;12.80;99.90;;;;;;5136136;27;20471;-62
2023/10/22 07:55:34;;;;;;;1.70;0.20;;;12.90;1.00;;;;;;5136495;27;20407;-62
2023/10/22 07:58:02;;;;;;;1.10;0.30;;;13.00;99.90;;;;;;5137062;27;20417;-62
2023/10/22 08:00:30;;;;;;;0.50;0.20;;;13.00;99.90;;;;;;5137273;27;20503;-61
2023/10/22 08:02:58;;;;;;;1.30;0.20;;;13.00;45.90;;;;;;5136778;27;20418;-63
2023/10/22 08:05:25;;;;;;;2.10;0.28;;;13.10;99.90;;;;;;5137909;27;20470;-62
2023/10/22 08:07:58;;;;;;;0.50;0.20;;;13.30;99.90;;;;;;5137492;27;20422;-62
2023/10/22 08:10:25;;;;;;;0.40;0.20;;;13.30;99.90;;;;;;5136502;27;20465;-62
2023/10/22 08:12:52;;;;;;;0.50;0.20;;;13.30;1.00;;;;;;5137763;27;20463;-62
2023/10/22 08:15:19;;;;;;;0.50;0.20;;;13.40;1.00;;;;;;5137157;27;20422;-62
2023/10/22 08:17:47;;;;;;;0.98;0.20;;;13.50;1.00;;;;;;5136653;27;20426;-62
2023/10/22 08:20:14;;;;;;;0.70;0.20;;;13.50;1.00;;;;;;5137214;27;20423;-62
2023/10/22 08:22:41;;;;;;;0.50;0.10;;;13.50;99.90;;;;;;5137358;27;20430;-63
2023/10/22 08:25:08;;;;;;;1.33;0.20;;;13.50;1.00;;;;;;5137383;27;20434;-62
2023/10/22 08:27:35;;;;;;;1.10;0.20;;;13.60;99.90;;;;;;5137110;27;20441;-62
2023/10/22 08:30:03;;;;;;;0.50;0.20;;;13.60;1.00;;;;;;5136582;27;20418;-62
2023/10/22 08:32:29;;;;;;;1.20;0.30;;;13.70;1.00;;;;;;5137306;27;20866;-62
2023/10/22 08:34:58;;;;;;;0.50;0.20;;;13.80;99.90;;;;;;5137263;27;20472;-62
2023/10/22 08:37:25;;;;;;;0.73;0.20;;;13.80;99.90;;;;;;5135995;27;20505;-62
2023/10/22 08:39:52;;;;;;;0.40;0.20;;;13.80;1.00;;;;;;5135031;27;20483;-62
2023/10/22 08:42:23;;;;;;;0.50;0.20;;;13.80;99.90;;;;;;5136384;27;20766;-62
2023/10/22 08:44:52;;;;;;;1.20;0.20;;;13.80;99.90;;;;;;5135948;27;20476;-61
2023/10/22 08:47:19;;;;;;;1.30;0.20;;;13.90;1.00;;;;;;5136334;27;20430;-62
2023/10/22 08:49:49;;;;;;;0.40;0.20;;;13.90;99.90;;;;;;5132255;27;20426;-62
2023/10/22 08:52:17;;;;;;;0.40;0.20;;;13.90;1.00;;;;;;5134857;27;20782;-63
2023/10/22 08:54:46;;;;;;;0.60;0.20;;;14.00;1.00;;;;;;5134732;27;20418;-63
2023/10/22 08:57:13;;;;;;;0.60;0.20;;;14.10;1.00;;;;;;5135133;27;20421;-62
2023/10/22 08:59:40;;;;;;;1.45;0.20;;;14.10;1.00;;;;;;5133737;27;20655;-62
2023/10/22 09:02:10;;;;;;;2.50;0.20;;;14.10;99.90;;;;;;5135360;27;20422;-62
2023/10/22 09:04:37;;;;;;;1.00;0.10;;;14.00;1.00;;;;;;5135251;27;20406;-63
2023/10/22 09:07:04;;;;;;;0.45;0.20;;;14.10;1.00;;;;;;5133704;27;20426;-63
2023/10/22 09:09:35;;;;;;;0.80;0.20;;;14.20;1.00;;;;;;5133937;27;20719;-62
2023/10/22 09:12:03;;;;;;;1.60;0.20;;;14.30;99.90;;;;;;5133720;27;20717;-62
2023/10/22 09:14:31;;;;;;;1.10;0.20;;;14.30;1.00;;;;;;5134569;27;20959;-63
2023/10/22 09:16:59;;;;;;;0.47;0.10;;;14.30;90.50;;;;;;5134838;27;20418;-62
2023/10/22 09:19:37;;;;;;;0.70;0.17;;;14.30;99.90;;;;;;5134058;27;20442;-63
2023/10/22 09:22:05;;;;;;;0.80;0.20;;;14.30;99.90;;;;;;5134919;27;20830;-62
2023/10/22 09:24:35;;;;;;;2.53;0.20;;;14.40;75.40;;;;;;5136626;27;20457;-63
2023/10/22 09:27:03;;;;;;;0.82;0.40;;;14.40;99.90;;;;;;5136016;27;20430;-63
2023/10/22 09:29:31;;;;;;;1.70;0.20;;;14.40;1.00;;;;;;5135718;27;20909;-62
2023/10/22 09:31:59;;;;;;;0.40;0.10;;;14.40;99.90;;;;;;5136053;27;20422;-63
2023/10/22 09:34:31;;;;;;;0.38;0.10;;;14.50;1.00;;;;;;5134990;27;20483;-62
2023/10/22 09:36:59;;;;;;;0.75;0.20;;;14.60;1.70;;;;;;5135062;27;20411;-62
2023/10/22 09:39:38;;;;;;;1.15;0.20;;;14.70;1.00;;;;;;5134809;27;20418;-61
2023/10/22 09:42:07;;;;;;;0.40;0.20;;;14.80;1.00;;;;;;5134787;27;20429;-62
2023/10/22 09:44:34;;;;;;;0.50;0.20;;;14.70;1.00;;;;;;5133314;27;20414;-62
2023/10/22 09:47:02;;;;;;;0.90;0.40;;;14.80;1.00;;;;;;5135187;27;20426;-62
2023/10/22 09:49:30;;;;;;;1.10;0.20;;;14.80;1.00;;;;;;5132616;27;20715;-64
2023/10/22 09:52:00;;;;;;;0.73;0.20;;;14.80;1.00;;;;;;5133672;27;20414;-63
2023/10/22 09:54:37;;;;;;;0.95;0.20;;;14.80;1.00;;;;;;5133691;27;20462;-62
2023/10/22 09:57:09;;;;;;;0.50;0.20;;;14.90;1.00;;;;;;5135224;27;20506;-62
2023/10/22 09:59:37;;;;;;;1.40;0.20;;;15.00;1.00;;;;;;5134743;27;20505;-63
2023/10/22 10:02:05;;;;;;;0.43;0.20;;;15.00;1.00;;;;;;5134449;27;20595;-62
2023/10/22 10:04:37;;;;;;;0.52;0.20;;;15.10;1.00;;;;;;5135279;28;20410;-62
2023/10/22 10:07:04;;;;;;;0.60;0.20;;;15.10;1.00;;;;;;5135586;28;20756;-63
2023/10/22 10:09:33;;;;;;;0.47;0.20;;;15.20;1.00;;;;;;5142250;27;20457;-62
2023/10/22 10:12:03;;;;;;;1.00;0.20;;;15.30;1.00;;;;;;5141363;27;20479;-63
2023/10/22 10:14:43;;;;;;;0.60;0.20;;;15.40;99.90;;;;;;5141904;27;20526;-63
2023/10/22 10:17:11;;;;;;;0.98;0.30;;;15.50;99.90;;;;;;5142648;27;20510;-62
2023/10/22 10:19:38;;;;;;;0.60;0.20;;;15.60;99.90;;;;;;5142522;27;20492;-63
2023/10/22 10:22:06;;;;;;;1.15;0.20;;;15.70;99.90;;;;;;5141820;27;20449;-63
2023/10/22 10:24:33;;;;;;;0.80;0.20;;;15.70;99.90;;;;;;5141283;27;20426;-63
2023/10/22 10:27:25;;;;;;;1.10;0.20;;;15.70;99.90;;;;;;5142116;27;20873;-63
2023/10/22 10:30:17;;;;;;;0.90;0.20;;;15.70;99.90;;;;;;5141948;27;20841;-64
2023/10/22 10:32:46;;;;;;;0.40;0.20;;;15.60;99.90;;;;;;5143583;27;20426;-61
2023/10/22 10:35:14;;;;;;;2.47;0.20;;;15.70;99.90;;;;;;5139726;27;20558;-60
2023/10/22 10:38:21;;;;;;;1.88;0.40;;;15.70;99.90;;;;;;5140875;27;20497;-60
2023/10/22 10:40:49;;;;;;;0.70;0.30;;;15.60;99.90;;;;;;5142350;27;20414;-60
2023/10/22 10:43:16;;;;;;;1.40;0.20;;;15.50;99.90;;;;;;5140396;27;20437;-59
2023/10/22 10:46:16;;;;;;;0.85;0.40;;;15.50;99.90;;;;;;5138339;27;20468;-61
2023/10/22 10:48:47;;;;;;;0.60;0.20;;;15.50;99.90;;;;;;5124349;27;20445;-62
2023/10/22 10:51:18;;;;;;;0.50;0.20;;;15.30;99.90;;;;;;5139689;27;20422;-63
2023/10/22 10:54:18;;;;;;;0.50;0.20;;;15.30;99.90;;;;;;5138675;27;20430;-62
2023/10/22 10:56:50;;;;;;;0.50;0.20;;;15.30;99.90;;;;;;5138788;27;20436;-63
2023/10/22 10:59:30;;;;;;;0.40;0.20;;;15.40;99.90;;;;;;5140747;27;20426;-63
2023/10/22 11:02:02;;;;;;;0.90;0.30;;;15.40;99.90;;;;;;5140127;27;20422;-63
2023/10/22 11:04:31;;;;;;;0.50;0.20;;;15.60;99.90;;;;;;5137093;27;20873;-61
2023/10/22 11:06:58;;;;;;;0.60;0.30;;;15.80;99.90;;;;;;5137768;27;20502;-62
2023/10/22 11:09:25;;;;;;;0.50;0.20;;;16.20;99.90;;;;;;5138697;27;20453;-62
2023/10/22 11:12:00;;;;;;;0.40;0.10;;;16.60;63.80;;;;;;5139464;27;20813;-63
2023/10/22 11:14:27;;;;;;;1.60;0.20;;;16.90;36.70;;;;;;5140781;27;20450;-62
2023/10/22 11:16:56;;;;;;;0.60;0.20;;;17.00;1.00;;;;;;5141132;27;20463;-63
2023/10/22 11:19:24;;;;;;;1.40;0.20;;;17.30;1.00;;;;;;5138463;27;20411;-62
2023/10/22 11:21:54;;;;;;;0.70;0.20;;;17.30;1.00;;;;;;5137368;27;20410;-62
2023/10/22 11:24:22;;;;;;;0.80;0.20;;;17.10;1.00;;;;;;5137246;27;20513;-63
2023/10/22 11:26:51;;;;;;;0.60;0.20;;;17.10;1.00;;;;;;5136614;27;20714;-61
2023/10/22 11:29:19;;;;;;;0.80;0.20;;;17.00;1.00;;;;;;5151001;27;20420;-62
2023/10/22 11:31:54;;;;;;;0.40;0.20;;;16.90;1.00;;;;;;5137510;27;20426;-63
2023/10/22 11:34:21;;;;;;;0.40;0.20;;;16.80;1.00;;;;;;5135301;27;20449;-62
2023/10/22 11:36:48;;;;;;;1.00;0.30;;;16.80;1.00;;;;;;5136453;27;20407;-63
2023/10/22 11:39:21;;;;;;;0.98;0.30;;;16.70;1.00;;;;;;5134828;27;20419;-63
2023/10/22 11:41:57;;;;;;;0.90;0.30;;;16.80;1.00;;;;;;5118997;27;20482;-63
2023/10/22 11:44:33;;;;;;;1.45;0.30;;;16.90;1.00;;;;;;5134947;27;20422;-63
2023/10/22 11:47:01;;;;;;;1.00;0.20;;;17.00;1.00;;;;;;5135466;27;20805;-63
2023/10/22 11:49:28;;;;;;;0.60;0.30;;;17.10;1.00;;;;;;5135164;27;20471;-62
2023/10/22 11:51:55;;;;;;;0.60;0.20;;;17.10;1.00;;;;;;5136456;27;20543;-63
2023/10/22 11:54:45;;;;;;;1.17;0.30;;;17.20;1.00;;;;;;5135735;27;20471;-64
2023/10/22 11:57:13;;;;;;;1.35;0.40;;;17.30;1.00;;;;;;5135369;27;20416;-63
2023/10/22 11:59:40;;;;;;;0.50;0.20;;;17.20;1.00;;;;;;5135469;27;20496;-63
2023/10/22 12:02:07;;;;;;;1.15;0.20;;;17.10;1.00;;;;;;5136829;27;20434;-63
2023/10/22 12:04:34;;;;;;;1.23;0.20;;;17.10;1.00;;;;;;5134930;27;20775;-64
2023/10/22 12:07:01;;;;;;;2.00;0.40;;;17.20;1.00;;;;;;5135322;27;20460;-63
2023/10/22 12:09:29;;;;;;;1.20;0.20;;;17.20;1.00;;;;;;5135942;27;20822;-63
2023/10/22 12:11:58;;;;;;;0.50;0.30;;;17.00;1.00;;;;;;5136278;27;20520;-64
2023/10/22 12:14:25;;;;;;;0.87;0.20;;;17.00;1.00;;;;;;5136297;27;20467;-63
2023/10/22 12:16:52;;;;;;;1.10;0.20;;;16.90;1.00;;;;;;5136662;27;20415;-62
2023/10/22 12:19:18;;;;;;;0.98;0.40;;;16.90;1.00;;;;;;5135811;27;20414;-64
2023/10/22 12:21:45;;;;;;;0.82;0.30;;;16.90;1.00;;;;;;5135054;27;20418;-62
2023/10/22 12:24:12;;;;;;;1.30;0.22;;;16.90;1.00;;;;;;5135090;27;20427;-62
2023/10/22 12:26:39;;;;;;;0.80;0.30;;;16.90;1.00;;;;;;5135590;27;20514;-64
2023/10/22 12:29:08;;;;;;;0.70;0.22;;;16.90;1.00;;;;;;5135691;27;20442;-62
2023/10/22 12:31:35;;;;;;;0.70;0.20;;;17.00;1.00;;;;;;5133623;27;20633;-63
2023/10/22 12:34:03;;;;;;;0.70;0.20;;;16.90;1.00;;;;;;5135769;27;20572;-64
2023/10/22 12:36:30;;;;;;;0.93;0.20;;;17.10;1.00;;;;;;5139364;27;20434;-63
2023/10/22 12:38:58;;;;;;;0.40;0.20;;;17.10;1.00;;;;;;5135616;27;20430;-63
2023/10/22 12:41:25;;;;;;;1.30;0.30;;;17.20;1.00;;;;;;5130726;27;20438;-63
2023/10/22 12:43:52;;;;;;;1.40;0.20;;;17.20;1.00;;;;;;5135476;27;20502;-64
2023/10/22 12:46:21;;;;;;;0.90;0.30;;;17.30;1.00;;;;;;5135416;27;20419;-64
2023/10/22 12:48:48;;;;;;;0.40;0.10;;;17.20;1.00;;;;;;5134507;27;20791;-63
2023/10/22 12:51:15;;;;;;;0.50;0.20;;;17.20;1.00;;;;;;5133608;27;20410;-65
2023/10/22 12:53:43;;;;;;;0.80;0.20;;;17.20;1.00;;;;;;5118255;27;20703;-66
2023/10/22 12:56:11;;;;;;;1.20;0.20;;;17.30;1.00;;;;;;5136122;27;20862;-64